createdAt,value
2022-11-12T00:01:01.735Z,5.70
2022-11-12T00:03:28.464Z,5.70
2022-11-12T00:08:22.863Z,5.60
2022-11-12T00:10:50.048Z,5.50
2022-11-12T00:13:16.835Z,5.50
2022-11-12T00:15:43.664Z,5.50
2022-11-12T00:18:10.480Z,5.50
2022-11-12T00:20:37.299Z,5.50
2022-11-12T00:25:31.384Z,5.60
2022-11-12T00:28:10.528Z,5.80
2022-11-12T00:30:39.542Z,5.90
2022-11-12T00:33:06.985Z,5.80
2022-11-12T00:35:34.349Z,5.70
2022-11-12T00:38:01.366Z,5.60
2022-11-12T00:40:28.644Z,5.50
2022-11-12T00:42:55.346Z,5.40
2022-11-12T00:45:22.587Z,5.50
2022-11-12T00:50:16.834Z,5.60
2022-11-12T00:52:43.990Z,5.50
2022-11-12T00:55:11.176Z,5.50
2022-11-12T00:57:38.079Z,5.30
2022-11-12T01:00:06.945Z,5.30
2022-11-12T01:02:40.710Z,5.30
2022-11-12T01:05:10.447Z,5.20
2022-11-12T01:07:37.184Z,5.30
2022-11-12T01:10:04.307Z,5.30
2022-11-12T01:12:32.117Z,5.10
2022-11-12T01:14:59.083Z,5.20
2022-11-12T01:17:26.041Z,5.20
2022-11-12T01:22:19.885Z,5.30
2022-11-12T01:24:46.669Z,5.40
2022-11-12T01:29:41.144Z,4.90
2022-11-12T01:32:08.231Z,4.90
2022-11-12T01:44:29.202Z,4.90
2022-11-12T01:47:17.042Z,4.80
2022-11-12T01:49:54.144Z,4.80
2022-11-12T01:52:24.911Z,4.80
2022-11-12T01:54:54.916Z,4.60
2022-11-12T01:57:34.583Z,4.80
2022-11-12T02:00:05.733Z,4.90
2022-11-12T02:02:34.020Z,4.80
2022-11-12T02:05:02.472Z,4.70
2022-11-12T02:07:30.986Z,4.60
2022-11-12T02:10:00.128Z,4.60
2022-11-12T02:12:45.930Z,4.50
2022-11-12T02:17:39.928Z,4.30
2022-11-12T02:20:10.833Z,4.30
2022-11-12T02:25:05.284Z,4.30
2022-11-12T02:27:32.260Z,4.30
2022-11-12T02:39:47.368Z,4.50
2022-11-12T02:44:41.512Z,4.20
2022-11-12T02:49:35.829Z,4.30
2022-11-12T03:09:12.811Z,4.20
2022-11-12T03:11:39.549Z,4.30
2022-11-12T03:14:06.299Z,4.20
2022-11-12T03:16:33.008Z,4.10
2022-11-12T03:18:59.754Z,4.20
2022-11-12T03:21:26.431Z,4.00
2022-11-12T03:28:47.467Z,3.80
2022-11-12T03:33:41.245Z,3.70
2022-11-12T03:36:08.166Z,3.80
2022-11-12T03:38:34.879Z,3.80
2022-11-12T03:41:01.575Z,3.90
2022-11-12T03:45:55.533Z,4.00
2022-11-12T03:55:45.177Z,4.00
2022-11-12T04:08:36.985Z,3.50
2022-11-12T04:11:15.012Z,3.40
2022-11-12T04:13:45.561Z,3.40
2022-11-12T04:16:33.374Z,3.50
2022-11-12T04:19:20.446Z,3.50
2022-11-12T04:24:47.866Z,3.40
2022-11-12T04:27:20.541Z,3.30
2022-11-12T04:30:07.129Z,3.30
2022-11-12T04:32:36.481Z,3.20
2022-11-12T04:35:04.287Z,3.20
2022-11-12T04:37:44.440Z,3.00
2022-11-12T04:40:54.716Z,3.10
2022-11-12T04:43:40.004Z,3.20
2022-11-12T04:46:06.947Z,3.30
2022-11-12T04:48:33.820Z,3.40
2022-11-12T04:51:02.823Z,3.30
2022-11-12T04:53:30.867Z,3.20
2022-11-12T04:55:59.462Z,3.10
2022-11-12T05:03:21.180Z,3.20
2022-11-12T05:10:42.056Z,3.20
2022-11-12T05:13:08.830Z,3.30
2022-11-12T05:23:06.789Z,2.90
2022-11-12T05:25:35.595Z,2.80
2022-11-12T05:30:29.424Z,2.90
2022-11-12T05:42:47.003Z,3.50
2022-11-12T05:50:08.683Z,3.40
2022-11-12T05:55:06.618Z,3.10
2022-11-12T05:57:33.417Z,2.90
2022-11-12T06:22:04.604Z,2.90
2022-11-12T06:29:30.159Z,2.90
2022-11-12T06:34:23.952Z,2.90
2022-11-12T06:36:50.699Z,2.80
2022-11-12T06:39:17.361Z,2.90
2022-11-12T06:56:26.801Z,3.00
2022-11-12T06:58:53.592Z,3.10
2022-11-12T07:03:51.972Z,3.20
2022-11-12T07:06:20.431Z,3.40
2022-11-12T07:08:49.117Z,3.30
2022-11-12T07:11:19.896Z,3.10
2022-11-12T07:13:47.223Z,3.00
2022-11-12T07:16:18.443Z,3.10
2022-11-12T07:18:46.358Z,3.30
2022-11-12T07:21:15.707Z,3.40
2022-11-12T07:26:41.914Z,3.50
2022-11-12T07:32:00.018Z,3.60
2022-11-12T07:36:53.859Z,3.50
2022-11-12T07:44:14.825Z,3.60
2022-11-12T07:54:04.258Z,3.70
2022-11-12T07:56:31.037Z,3.80
2022-11-12T08:01:40.613Z,3.90
2022-11-12T08:04:09.997Z,4.00
2022-11-12T08:06:37.301Z,4.10
2022-11-12T08:09:08.731Z,4.10
2022-11-12T08:14:03.188Z,4.40
2022-11-12T08:16:30.235Z,4.60
2022-11-12T08:21:24.591Z,5.00
2022-11-12T08:23:51.310Z,5.20
2022-11-12T08:26:19.858Z,5.40
2022-11-12T08:28:47.501Z,6.20
2022-11-12T08:31:16.778Z,7.30
2022-11-12T08:33:44.237Z,8.50
2022-11-12T08:36:13.804Z,9.60
2022-11-12T08:38:41.278Z,10.70
2022-11-12T08:41:10.792Z,11.60
2022-11-12T08:43:38.588Z,12.30
2022-11-12T08:46:05.717Z,12.80
2022-11-12T08:48:34.358Z,12.90
2022-11-12T08:51:02.408Z,12.60
2022-11-12T08:53:30.238Z,12.60
2022-11-12T08:55:57.526Z,12.20
2022-11-12T08:58:25.531Z,10.60
2022-11-12T09:00:52.853Z,10.60
2022-11-12T09:03:23.069Z,11.10
2022-11-12T09:05:50.580Z,11.50
2022-11-12T09:08:20.167Z,11.70
2022-11-12T09:10:47.724Z,11.70
2022-11-12T09:18:13.356Z,13.50
2022-11-12T09:20:40.250Z,15.50
2022-11-12T09:23:13.491Z,15.90
2022-11-12T09:25:40.805Z,16.00
2022-11-12T09:28:16.208Z,15.90
2022-11-12T09:30:46.488Z,15.90
2022-11-12T09:33:19.190Z,14.90
2022-11-12T09:35:47.006Z,14.30
2022-11-12T09:38:15.300Z,14.10
2022-11-12T09:40:50.988Z,13.30
2022-11-12T09:43:32.648Z,12.60
2022-11-12T09:49:27.494Z,12.30
2022-11-12T09:52:01.214Z,12.00
2022-11-12T09:54:35.015Z,11.90
2022-11-12T09:57:02.342Z,11.80
2022-11-12T09:59:31.904Z,11.80
2022-11-12T10:01:58.628Z,11.80
2022-11-12T10:04:37.482Z,11.80
2022-11-12T10:07:11.020Z,11.90
2022-11-12T10:10:05.287Z,12.00
2022-11-12T10:12:42.732Z,11.80
2022-11-12T10:15:43.059Z,11.40
2022-11-12T10:18:21.501Z,11.30
2022-11-12T10:21:19.181Z,11.50
2022-11-12T10:23:48.778Z,11.70
2022-11-12T10:26:18.444Z,11.80
2022-11-12T10:28:55.679Z,11.60
2022-11-12T10:31:22.424Z,11.70
2022-11-12T10:33:49.166Z,11.70
2022-11-12T10:36:36.919Z,11.60
2022-11-12T10:39:03.922Z,11.30
2022-11-12T10:41:33.236Z,11.30
2022-11-12T10:44:14.856Z,11.40
2022-11-12T10:46:41.757Z,11.40
2022-11-12T10:49:14.362Z,11.30
2022-11-12T10:51:41.287Z,11.30
2022-11-12T10:54:35.200Z,11.40
2022-11-12T10:57:25.515Z,11.40
2022-11-12T11:00:20.109Z,11.40
2022-11-12T11:02:55.063Z,11.30
2022-11-12T11:05:31.481Z,11.30
2022-11-12T11:07:58.502Z,11.40
2022-11-12T11:10:36.416Z,11.30
2022-11-12T11:13:22.604Z,11.20
2022-11-12T11:16:04.123Z,11.10
2022-11-12T11:18:34.600Z,11.10
2022-11-12T11:21:28.823Z,11.10
2022-11-12T11:24:04.792Z,11.20
2022-11-12T11:26:49.795Z,11.30
2022-11-12T11:29:34.676Z,11.40
2022-11-12T11:32:25.968Z,11.50
2022-11-12T11:35:27.228Z,11.80
2022-11-12T11:37:59.728Z,12.20
2022-11-12T11:40:36.058Z,12.40
2022-11-12T11:43:38.208Z,12.80
2022-11-12T11:46:10.739Z,13.30
2022-11-12T11:48:52.880Z,14.10
2022-11-12T11:51:41.949Z,14.70
2022-11-12T11:54:33.564Z,15.20
2022-11-12T11:57:05.067Z,15.50
2022-11-12T11:59:57.724Z,15.60
2022-11-12T12:02:58.352Z,16.50
2022-11-12T12:05:55.449Z,16.80
2022-11-12T12:08:35.001Z,17.10
2022-11-12T12:11:34.156Z,17.90
2022-11-12T12:14:06.742Z,18.40
2022-11-12T12:16:50.945Z,18.10
2022-11-12T12:19:45.996Z,17.70
2022-11-12T12:22:21.271Z,17.50
2022-11-12T12:24:54.179Z,17.50
2022-11-12T12:27:38.074Z,17.50
2022-11-12T12:30:18.462Z,17.40
2022-11-12T12:32:54.934Z,17.20
2022-11-12T12:35:35.727Z,16.70
2022-11-12T12:38:14.372Z,16.70
2022-11-12T12:40:46.880Z,16.00
2022-11-12T12:43:27.889Z,16.30
2022-11-12T12:45:57.727Z,16.40
2022-11-12T12:48:38.206Z,16.20
2022-11-12T12:51:05.080Z,16.00
2022-11-12T12:53:36.863Z,16.00
2022-11-12T12:56:47.123Z,16.10
2022-11-12T12:59:22.625Z,15.30
2022-11-12T13:02:22.680Z,15.00
2022-11-12T13:04:50.887Z,14.90
2022-11-12T13:07:18.340Z,14.80
2022-11-12T13:09:45.087Z,14.80
2022-11-12T13:12:11.805Z,14.80
2022-11-12T13:14:38.457Z,14.70
2022-11-12T13:17:12.928Z,14.50
2022-11-12T13:19:45.642Z,14.40
2022-11-12T13:22:18.429Z,14.30
2022-11-12T13:25:19.232Z,14.30
2022-11-12T13:30:13.753Z,14.10
2022-11-12T13:32:46.428Z,14.00
2022-11-12T13:35:22.159Z,14.00
2022-11-12T13:37:56.095Z,13.70
2022-11-12T13:40:28.343Z,13.40
2022-11-12T13:43:19.614Z,13.30
2022-11-12T13:45:54.897Z,13.20
2022-11-12T13:48:33.119Z,13.20
2022-11-12T13:51:06.958Z,13.10
2022-11-12T13:53:34.061Z,13.10
2022-11-12T13:56:00.805Z,13.00
2022-11-12T13:58:35.826Z,12.90
2022-11-12T14:01:05.019Z,13.00
2022-11-12T14:03:39.969Z,12.90
2022-11-12T14:06:27.236Z,12.80
2022-11-12T14:09:12.726Z,12.80
2022-11-12T14:11:47.578Z,12.80
2022-11-12T14:14:51.748Z,12.80
2022-11-12T14:19:55.672Z,12.80
2022-11-12T14:22:22.851Z,12.60
2022-11-12T14:25:00.970Z,12.50
2022-11-12T14:27:33.404Z,12.40
2022-11-12T14:30:20.945Z,12.30
2022-11-12T14:32:59.585Z,12.30
2022-11-12T14:35:37.918Z,12.20
2022-11-12T14:38:11.078Z,12.10
2022-11-12T14:40:54.407Z,12.10
2022-11-12T14:43:36.526Z,12.10
2022-11-12T14:46:05.908Z,12.10
2022-11-12T14:48:46.189Z,12.00
2022-11-12T14:51:14.283Z,11.90
2022-11-12T14:53:46.689Z,11.90
2022-11-12T14:56:30.009Z,11.90
2022-11-12T14:58:59.773Z,11.90
2022-11-12T15:02:20.532Z,11.90
2022-11-12T15:04:25.025Z,11.80
2022-11-12T15:06:54.057Z,11.80
2022-11-12T15:09:38.518Z,11.70
2022-11-12T15:12:19.052Z,11.70
2022-11-12T15:14:45.840Z,11.60
2022-11-12T15:17:32.765Z,11.60
2022-11-12T15:20:05.902Z,11.50
2022-11-12T15:22:32.896Z,11.50
2022-11-12T15:25:26.685Z,11.50
2022-11-12T15:27:53.643Z,11.10
2022-11-12T15:30:30.964Z,10.90
2022-11-12T15:33:13.593Z,10.80
2022-11-12T15:43:30.565Z,10.70
2022-11-12T15:45:58.162Z,10.50
2022-11-12T15:48:24.865Z,10.40
2022-11-12T15:50:51.796Z,10.30
2022-11-12T15:53:18.912Z,10.10
2022-11-12T15:55:46.414Z,10.00
2022-11-12T15:58:20.099Z,9.90
2022-11-12T16:00:46.982Z,9.90
2022-11-12T16:03:21.627Z,9.80
2022-11-12T16:05:48.653Z,9.70
2022-11-12T16:08:15.559Z,9.60
2022-11-12T16:10:44.324Z,9.60
2022-11-12T16:13:31.688Z,9.40
2022-11-12T16:15:58.979Z,9.20
2022-11-12T16:18:25.701Z,9.20
2022-11-12T16:20:52.453Z,9.20
2022-11-12T16:23:19.231Z,8.90
2022-11-12T16:25:46.477Z,8.60
2022-11-12T16:28:17.978Z,8.50
2022-11-12T16:30:47.593Z,8.50
2022-11-12T16:33:17.025Z,8.60
2022-11-12T16:38:15.037Z,8.50
2022-11-12T16:40:42.724Z,8.30
2022-11-12T16:43:09.458Z,8.30
2022-11-12T16:45:39.540Z,8.20
2022-11-12T16:48:22.755Z,8.20
2022-11-12T16:50:49.746Z,8.10
2022-11-12T16:53:16.480Z,8.00
2022-11-12T16:58:14.500Z,8.10
2022-11-12T17:00:44.211Z,8.00
2022-11-12T17:03:13.170Z,8.00
2022-11-12T17:08:08.393Z,7.80
2022-11-12T17:22:53.922Z,7.40
2022-11-12T17:30:15.145Z,7.20
2022-11-12T17:32:42.148Z,7.10
2022-11-12T17:37:36.127Z,7.10
2022-11-12T17:40:03.371Z,7.00
2022-11-12T17:47:24.424Z,6.90
2022-11-12T18:11:56.583Z,6.60
2022-11-12T18:16:51.499Z,6.60
2022-11-12T18:19:18.415Z,6.50
2022-11-12T18:24:14.991Z,6.40
2022-11-12T18:26:42.090Z,6.30
2022-11-12T18:36:30.899Z,6.20
2022-11-12T18:41:26.853Z,6.10
2022-11-12T18:43:54.525Z,6.00
2022-11-12T18:46:21.580Z,5.80
2022-11-12T18:48:48.912Z,5.70
2022-11-12T18:51:17.933Z,5.80
2022-11-12T18:53:46.113Z,5.90
2022-11-12T18:56:15.620Z,5.80
2022-11-12T18:58:42.622Z,5.90
2022-11-12T19:01:13.263Z,5.80
2022-11-12T19:03:40.135Z,5.90
2022-11-12T19:06:07.776Z,6.20
2022-11-12T19:08:35.201Z,6.10
2022-11-12T19:11:04.994Z,5.90
2022-11-12T19:13:32.553Z,6.00
2022-11-12T19:16:11.880Z,6.10
2022-11-12T19:18:40.434Z,6.10
2022-11-12T19:21:09.896Z,6.00
2022-11-12T19:23:37.042Z,6.10
2022-11-12T19:26:05.142Z,6.20
2022-11-12T19:28:32.543Z,6.20
2022-11-12T19:31:03.957Z,6.10
2022-11-12T19:38:32.728Z,5.80
2022-11-12T19:41:05.650Z,5.80
2022-11-12T19:43:32.679Z,5.80
2022-11-12T19:50:55.077Z,5.80
2022-11-12T19:53:21.788Z,5.90
2022-11-12T20:12:58.985Z,6.20
2022-11-12T20:27:42.073Z,6.00
2022-11-12T20:32:36.193Z,5.90
2022-11-12T20:40:04.759Z,5.70
2022-11-12T20:47:25.833Z,5.60
2022-11-12T20:54:46.794Z,5.80
2022-11-12T20:57:13.516Z,5.70
2022-11-12T21:02:10.357Z,5.50
2022-11-12T21:24:15.618Z,5.60
2022-11-12T21:36:35.560Z,5.20
2022-11-12T21:39:03.598Z,5.30
2022-11-12T21:44:00.555Z,5.30
2022-11-12T21:46:29.634Z,5.30
2022-11-12T21:48:57.274Z,5.30
2022-11-12T21:51:26.605Z,5.10
2022-11-12T21:53:58.792Z,5.00
2022-11-12T21:56:26.465Z,5.10
2022-11-12T21:58:59.294Z,5.10
2022-11-12T22:01:28.138Z,4.90
2022-11-12T22:03:55.932Z,4.90
2022-11-12T22:06:25.099Z,5.00
2022-11-12T22:08:53.838Z,5.00
2022-11-12T22:16:21.743Z,5.00
2022-11-12T22:21:19.509Z,5.00
2022-11-12T22:23:46.438Z,4.80
2022-11-12T22:26:16.304Z,4.80
2022-11-12T22:28:43.503Z,4.80
2022-11-12T22:31:12.782Z,4.80
2022-11-12T22:33:39.901Z,4.80
2022-11-12T22:36:12.574Z,4.80
2022-11-12T22:38:41.328Z,4.70
2022-11-12T22:41:13.618Z,4.80
2022-11-12T22:43:40.937Z,4.90
2022-11-12T22:46:13.075Z,5.00
2022-11-12T22:48:40.776Z,5.00
2022-11-12T22:53:36.488Z,4.90
2022-11-12T22:58:34.426Z,4.90
2022-11-12T23:03:31.545Z,4.70
2022-11-12T23:05:59.776Z,4.80
2022-11-12T23:08:27.366Z,4.80
2022-11-12T23:13:21.966Z,4.90
2022-11-12T23:15:48.736Z,4.80
2022-11-12T23:30:35.798Z,4.70
2022-11-12T23:33:03.159Z,4.70
2022-11-12T23:35:30.311Z,4.70
2022-11-12T23:47:52.550Z,4.80
2022-11-12T23:52:46.891Z,4.80
